Time;durP1;ratioP1;P1;durP2;ratioP2;P2;SDS_P1;SDS_P2;PMS_P1;PMS_P2;Temp;Humidity;BMP_temperature;BMP_pressure;BME280_temperature;BME280_humidity;BME280_pressure;Samples;Min_cycle;Max_cycle;Signal;HPM_P1;HPM_P2
2023/09/05 00:00:51;;;;;;;6.23;5.90;;;21.40;14.30;;;;;;4990083;28;20432;-77
2023/09/05 00:03:18;;;;;;;6.63;6.33;;;21.40;14.40;;;;;;4981112;28;20178;-78
2023/09/05 00:05:43;;;;;;;6.40;5.97;;;21.40;14.00;;;;;;4998273;28;20213;-77
2023/09/05 00:08:10;;;;;;;5.80;5.50;;;21.40;14.10;;;;;;4980646;28;20461;-79
2023/09/05 00:10:35;;;;;;;6.50;6.20;;;21.30;14.00;;;;;;4998065;28;20213;-77
2023/09/05 00:13:05;;;;;;;7.30;6.90;;;21.30;14.00;;;;;;4980793;28;20421;-77
2023/09/05 00:15:31;;;;;;;6.67;6.37;;;21.20;13.90;;;;;;4998013;28;20166;-77
2023/09/05 00:17:56;;;;;;;7.10;6.70;;;21.30;13.70;;;;;;4998078;28;20826;-78
2023/09/05 00:20:22;;;;;;;6.30;6.00;;;21.30;13.60;;;;;;4997966;28;20216;-78
2023/09/05 00:22:47;;;;;;;6.37;6.00;;;21.30;13.80;;;;;;4997693;28;20231;-79
2023/09/05 00:25:15;;;;;;;6.53;6.13;;;21.30;13.70;;;;;;4998311;28;20178;-79
2023/09/05 00:27:40;;;;;;;7.07;6.43;;;21.20;13.90;;;;;;4998216;28;20200;-78
2023/09/05 00:30:07;;;;;;;6.50;6.20;;;21.30;13.60;;;;;;4998533;28;20433;-79
2023/09/05 00:32:33;;;;;;;7.00;6.63;;;21.30;13.40;;;;;;4981128;28;20177;-79
2023/09/05 00:34:58;;;;;;;6.60;6.20;;;21.30;13.30;;;;;;4999225;28;20405;-79
2023/09/05 00:37:24;;;;;;;7.17;6.77;;;21.30;13.10;;;;;;4986705;28;20174;-78
2023/09/05 00:39:50;;;;;;;6.30;6.00;;;21.20;12.90;;;;;;4988427;28;20224;-79
2023/09/05 00:42:16;;;;;;;6.30;6.00;;;21.20;12.70;;;;;;5006283;28;20257;-79
2023/09/05 00:44:42;;;;;;;7.00;6.60;;;21.20;12.60;;;;;;4989761;28;20178;-79
2023/09/05 00:47:11;;;;;;;6.80;6.43;;;21.20;12.70;;;;;;5005582;28;20492;-79
2023/09/05 00:49:41;;;;;;;6.40;6.00;;;21.10;12.60;;;;;;4984365;28;20465;-79
2023/09/05 00:52:09;;;;;;;6.53;6.23;;;21.10;12.70;;;;;;5001263;28;20424;-79
2023/09/05 00:54:36;;;;;;;6.30;6.00;;;21.10;12.60;;;;;;5001562;28;20555;-79
2023/09/05 00:57:02;;;;;;;7.60;7.00;;;21.10;12.50;;;;;;5000954;28;20416;-80
2023/09/05 00:59:27;;;;;;;6.77;6.30;;;21.10;12.60;;;;;;5000762;28;20436;-79
2023/09/05 01:01:56;;;;;;;6.80;6.30;;;21.10;12.70;;;;;;4983164;28;20186;-79
2023/09/05 01:04:23;;;;;;;9.10;8.50;;;21.10;12.60;;;;;;5000124;28;20181;-80
2023/09/05 01:06:52;;;;;;;7.20;6.80;;;21.10;12.60;;;;;;4999935;28;20435;-79
2023/09/05 01:09:45;;;;;;;6.23;5.93;;;21.10;12.70;;;;;;5000617;28;20461;-79
2023/09/05 01:12:11;;;;;;;6.33;6.03;;;21.10;12.60;;;;;;5000251;28;20425;-81
2023/09/05 01:14:36;;;;;;;6.03;5.73;;;21.10;12.70;;;;;;5000173;28;20449;-79
2023/09/05 12:25:14;;;;;;;8.20;7.80;;;26.60;7.10;;;;;;4999071;23;20590;-81
2023/09/05 12:27:44;;;;;;;7.87;7.67;;;26.60;6.80;;;;;;4957186;28;20518;-80
2023/09/05 12:30:28;;;;;;;8.77;8.30;;;26.70;5.00;;;;;;4952528;29;20434;-82
2023/09/05 12:33:01;;;;;;;8.00;7.70;;;26.90;5.30;;;;;;4949353;29;20748;-82
2023/09/05 12:35:28;;;;;;;8.40;8.10;;;26.90;5.90;;;;;;4964291;29;20420;-78
2023/09/05 12:37:55;;;;;;;8.03;7.63;;;26.90;5.40;;;;;;4964413;29;20434;-78
2023/09/05 12:40:22;;;;;;;7.90;7.50;;;27.00;5.50;;;;;;4966742;28;20430;-78
2023/09/05 12:42:49;;;;;;;7.50;7.20;;;27.00;5.50;;;;;;4959216;28;20435;-80
2023/09/05 12:45:15;;;;;;;7.60;7.30;;;27.00;6.00;;;;;;4953609;29;20468;-80
2023/09/05 12:47:41;;;;;;;7.80;7.43;;;27.20;5.40;;;;;;4951100;29;20516;-79
2023/09/05 12:50:12;;;;;;;8.00;7.60;;;27.10;5.50;;;;;;4952817;29;20480;-80
2023/09/05 12:52:42;;;;;;;7.57;7.03;;;27.00;6.60;;;;;;4952638;28;20195;-79
2023/09/05 12:55:10;;;;;;;8.13;7.83;;;26.90;6.30;;;;;;4949081;29;20424;-78
2023/09/05 12:57:37;;;;;;;7.80;7.50;;;26.90;6.20;;;;;;4950657;29;20458;-79
2023/09/05 13:00:03;;;;;;;7.23;6.93;;;26.90;6.20;;;;;;4943469;28;20475;-78
2023/09/05 13:02:28;;;;;;;7.93;7.57;;;26.90;7.00;;;;;;4947040;29;20460;-78
2023/09/05 13:04:54;;;;;;;7.40;7.10;;;26.90;6.50;;;;;;4947061;29;20491;-79
2023/09/05 13:07:19;;;;;;;7.17;6.77;;;27.00;6.00;;;;;;4946469;29;20551;-79
2023/09/05 13:09:45;;;;;;;7.57;7.20;;;27.00;6.50;;;;;;4948257;29;20227;-79
2023/09/05 13:12:10;;;;;;;8.07;7.57;;;27.10;6.80;;;;;;4951154;29;20210;-78
2023/09/05 13:14:36;;;;;;;8.37;7.97;;;27.20;6.90;;;;;;4948669;29;20190;-80
2023/09/05 13:17:02;;;;;;;7.70;7.40;;;27.30;6.40;;;;;;4947484;29;20190;-80
2023/09/05 13:19:27;;;;;;;8.03;7.70;;;27.20;6.50;;;;;;4947535;29;20242;-80
2023/09/05 13:21:53;;;;;;;7.20;6.90;;;27.30;6.10;;;;;;4949309;29;20435;-79
2023/09/05 13:24:19;;;;;;;7.37;7.17;;;27.50;5.50;;;;;;4950635;29;20218;-78
2023/09/05 13:26:44;;;;;;;7.23;6.93;;;27.40;5.90;;;;;;4946864;29;20196;-79
2023/09/05 13:29:10;;;;;;;7.17;6.87;;;27.40;6.40;;;;;;4947631;29;20219;-80
2023/09/05 13:31:35;;;;;;;7.73;7.33;;;27.30;6.10;;;;;;4942804;29;20196;-79
2023/09/05 16:56:22;;;;;;;6.83;5.70;;;25.80;12.00;;;;;;5815296;23;20491;-77
2023/09/05 16:58:47;;;;;;;6.60;6.00;;;25.80;12.00;;;;;;4946831;29;20439;-78
2023/09/05 17:01:13;;;;;;;6.73;6.00;;;25.70;12.30;;;;;;4947250;29;20187;-78
2023/09/05 17:03:38;;;;;;;6.37;5.87;;;25.60;12.30;;;;;;4935672;29;20704;-78
2023/09/05 17:06:38;;;;;;;;;;;;;;;;;;;;;
2023/09/05 17:08:59;;;;;;;6.83;6.53;;;25.50;12.50;;;;;;4928759;29;20711;-76
2023/09/05 17:11:24;;;;;;;7.00;6.60;;;25.50;12.80;;;;;;4930638;29;20420;-77
2023/09/05 17:13:50;;;;;;;6.90;6.60;;;25.50;12.70;;;;;;4932845;29;20275;-77
2023/09/05 17:16:16;;;;;;;6.33;6.03;;;25.40;13.20;;;;;;4938226;29;20278;-78
2023/09/05 17:18:45;;;;;;;6.63;6.23;;;25.40;12.90;;;;;;4938028;29;20190;-79
2023/09/05 17:21:11;;;;;;;6.80;6.30;;;25.40;12.70;;;;;;4946426;29;20184;-76
2023/09/05 17:23:38;;;;;;;6.20;5.70;;;25.30;13.00;;;;;;4921530;29;20460;-76
2023/09/05 17:26:04;;;;;;;6.70;6.40;;;25.20;12.90;;;;;;4933723;29;20835;-77
2023/09/05 17:28:30;;;;;;;5.60;5.33;;;25.10;12.60;;;;;;4933345;29;20514;-77
2023/09/05 17:30:56;;;;;;;5.87;5.67;;;25.20;13.00;;;;;;4934169;29;20176;-77
2023/09/05 17:33:22;;;;;;;6.80;6.50;;;25.10;13.20;;;;;;4936031;29;20510;-76
2023/09/05 17:35:47;;;;;;;6.60;6.30;;;25.10;12.50;;;;;;4934609;29;20538;-76
2023/09/05 17:38:13;;;;;;;6.40;6.07;;;25.10;12.50;;;;;;4934263;29;20187;-76
2023/09/05 17:40:46;;;;;;;6.13;5.83;;;25.10;13.10;;;;;;4933416;29;20247;-78
2023/09/05 17:43:12;;;;;;;5.90;5.60;;;25.00;13.20;;;;;;4934451;29;20203;-77
2023/09/05 17:45:42;;;;;;;6.03;5.73;;;24.90;13.00;;;;;;4934999;29;20920;-78
2023/09/05 17:48:10;;;;;;;9.87;6.20;;;24.90;12.80;;;;;;4934958;29;20769;-78
2023/09/05 17:50:36;;;;;;;6.50;6.20;;;24.90;12.70;;;;;;4933792;29;20439;-77
2023/09/05 17:53:02;;;;;;;7.57;6.87;;;24.90;12.70;;;;;;4934767;29;20444;-77
2023/09/05 17:55:28;;;;;;;5.90;5.50;;;24.80;13.00;;;;;;4928243;29;20428;-77
2023/09/05 17:57:54;;;;;;;6.13;5.73;;;24.70;13.30;;;;;;4931238;29;20578;-77
2023/09/05 18:00:19;;;;;;;6.70;6.33;;;24.70;13.70;;;;;;4931157;29;20184;-78
2023/09/05 18:02:45;;;;;;;6.60;6.10;;;24.60;13.70;;;;;;4932918;29;20204;-79
2023/09/05 18:05:11;;;;;;;6.90;6.30;;;24.50;13.60;;;;;;4940838;29;20200;-78
2023/09/05 18:07:41;;;;;;;6.43;6.10;;;24.50;14.20;;;;;;4934656;29;20184;-77
2023/09/05 18:10:11;;;;;;;6.47;6.07;;;24.40;14.00;;;;;;4934128;29;20211;-78
2023/09/05 18:12:40;;;;;;;6.77;6.37;;;24.40;14.20;;;;;;4935231;29;20500;-79
2023/09/05 18:15:06;;;;;;;6.33;5.93;;;24.40;14.50;;;;;;4934286;29;20420;-78
2023/09/05 18:17:32;;;;;;;6.47;6.07;;;24.30;14.70;;;;;;4933747;29;20450;-76
2023/09/05 18:19:58;;;;;;;7.23;6.73;;;24.30;14.70;;;;;;4934788;29;20423;-77
2023/09/05 18:22:24;;;;;;;7.40;6.90;;;24.20;14.50;;;;;;4934602;29;20184;-77
2023/09/05 18:24:49;;;;;;;7.20;6.67;;;24.20;14.70;;;;;;4935566;29;20576;-78
2023/09/05 18:27:15;;;;;;;7.30;6.80;;;24.20;14.70;;;;;;4937940;29;20246;-77
2023/09/05 18:29:40;;;;;;;7.37;6.97;;;24.00;14.50;;;;;;4936279;29;20235;-77
2023/09/05 18:32:06;;;;;;;7.03;6.63;;;24.10;14.10;;;;;;4936755;29;20180;-77
2023/09/05 18:34:37;;;;;;;6.57;6.17;;;24.00;14.30;;;;;;4938378;29;20218;-76
2023/09/05 18:37:04;;;;;;;6.67;6.27;;;24.00;14.40;;;;;;4937888;29;20637;-76
2023/09/05 18:39:30;;;;;;;6.67;6.13;;;23.90;14.70;;;;;;4937417;29;20415;-76
2023/09/05 18:41:56;;;;;;;7.17;6.57;;;23.90;14.80;;;;;;4939642;29;20466;-77
2023/09/05 18:44:24;;;;;;;7.60;7.10;;;23.90;14.90;;;;;;4939411;29;20452;-78
2023/09/05 18:46:51;;;;;;;6.87;6.47;;;23.80;14.70;;;;;;4937271;29;20672;-77
2023/09/05 18:49:17;;;;;;;6.67;6.30;;;23.80;14.90;;;;;;4937023;29;20467;-77
2023/09/05 18:51:42;;;;;;;6.77;6.37;;;23.80;15.10;;;;;;4938485;29;20522;-77
2023/09/05 18:54:08;;;;;;;7.30;6.70;;;23.80;15.70;;;;;;4938316;29;20283;-78
2023/09/05 18:56:34;;;;;;;6.67;6.27;;;23.70;15.00;;;;;;4937179;29;20267;-77
2023/09/05 18:59:00;;;;;;;6.97;6.33;;;23.70;14.60;;;;;;4937415;29;20259;-76
2023/09/05 19:01:25;;;;;;;6.20;5.90;;;23.70;14.70;;;;;;4938191;29;20188;-79
2023/09/05 19:03:54;;;;;;;6.10;5.60;;;23.60;14.80;;;;;;4938929;29;20279;-77
2023/09/05 19:06:20;;;;;;;6.70;6.20;;;23.60;14.80;;;;;;4933685;29;20192;-79
2023/09/05 19:08:46;;;;;;;7.13;6.73;;;23.60;15.00;;;;;;4918072;29;20611;-77
2023/09/05 19:11:12;;;;;;;6.83;6.43;;;23.50;15.00;;;;;;4918191;29;20504;-76
2023/09/05 19:13:38;;;;;;;6.00;5.60;;;23.50;15.10;;;;;;4920342;29;20192;-76
2023/09/05 19:16:07;;;;;;;6.43;6.03;;;23.50;15.50;;;;;;4937369;29;20503;-76
2023/09/05 19:18:33;;;;;;;7.30;6.70;;;23.40;15.40;;;;;;4936677;29;20211;-77
2023/09/05 19:20:59;;;;;;;7.30;6.77;;;23.40;15.40;;;;;;4933414;29;20830;-77
2023/09/05 19:23:25;;;;;;;6.57;6.10;;;23.40;15.40;;;;;;4924378;29;20451;-76
2023/09/05 19:25:51;;;;;;;7.07;6.57;;;23.30;15.30;;;;;;4923210;29;20652;-74
2023/09/05 19:28:16;;;;;;;7.80;7.30;;;23.30;15.30;;;;;;4932644;29;20529;-77
2023/09/05 19:30:42;;;;;;;8.00;7.40;;;23.30;15.30;;;;;;4934911;29;20416;-76
2023/09/05 20:53:33;;;;;;;7.43;6.83;;;22.40;18.30;;;;;;5529936;23;20503;-78
2023/09/05 20:56:03;;;;;;;7.30;6.90;;;22.30;18.30;;;;;;4937048;29;20452;-78
2023/09/05 20:58:29;;;;;;;7.90;7.30;;;22.20;18.40;;;;;;4937319;29;20436;-79
2023/09/05 21:01:01;;;;;;;7.03;6.53;;;22.20;18.50;;;;;;4937100;29;20440;-79
2023/09/05 21:03:29;;;;;;;7.63;6.93;;;22.10;18.30;;;;;;4957130;28;20764;-78
2023/09/05 21:05:58;;;;;;;7.77;7.17;;;22.10;18.50;;;;;;4934470;29;20432;-79
2023/09/05 21:08:26;;;;;;;7.30;6.80;;;22.10;18.50;;;;;;4921824;29;20558;-79
2023/09/05 21:11:16;;;;;;;7.37;6.90;;;22.10;18.40;;;;;;4936915;29;20439;-81
2023/09/05 21:13:41;;;;;;;8.30;7.70;;;22.10;18.70;;;;;;4930985;29;20448;-79
2023/09/05 21:16:23;;;;;;;7.53;7.03;;;22.10;18.30;;;;;;4937162;29;20491;-80
2023/09/05 21:19:51;;;;;;;;;;;;;;;;;;;;;
2023/09/05 21:23:18;;;;;;;;;;;;;;;;;;;;;
2023/09/05 21:28:50;;;;;;;9.03;8.10;;;22.00;17.80;;;;;;4900628;29;20858;-78
2023/09/05 21:32:01;;;;;;;8.10;7.60;;;22.00;17.80;;;;;;4906389;29;20425;-78
2023/09/05 21:42:56;;;;;;;8.87;8.27;;;21.90;18.20;;;;;;4921520;29;20410;-79
2023/09/05 21:45:47;;;;;;;;;;;;;;;;;;;;;
2023/09/05 21:52:14;;;;;;;;;;;;;;;;;;;;;
2023/09/05 21:55:39;;;;;;;8.03;7.40;;;21.80;18.10;;;;;;4878275;29;20467;-78
2023/09/05 22:04:51;;;;;;;9.43;8.70;;;21.70;18.40;;;;;;4934046;29;20530;-79
2023/09/05 22:14:32;;;;;;;;;;;;;;;;;;;;;
2023/09/05 22:21:35;;;;;;;;;;;;;;;;;;;;;
